createdAt,value
2019-05-26T00:02:27.651Z,4.80
2019-05-26T00:04:56.554Z,4.90
2019-05-26T00:07:30.693Z,4.50
2019-05-26T00:09:54.359Z,4.50
2019-05-26T00:12:23.254Z,4.30
2019-05-26T00:14:52.137Z,4.10
2019-05-26T00:17:21.024Z,4.17
2019-05-26T00:19:49.903Z,4.23
2019-05-26T00:22:18.811Z,4.50
2019-05-26T00:24:47.719Z,4.37
2019-05-26T00:27:16.635Z,4.70
2019-05-26T00:29:45.541Z,4.60
2019-05-26T00:32:14.421Z,3.87
2019-05-26T00:34:43.313Z,3.77
2019-05-26T00:37:12.191Z,4.27
2019-05-26T00:39:41.100Z,4.40
2019-05-26T00:42:10.032Z,4.30
2019-05-26T00:44:38.912Z,4.30
2019-05-26T00:47:07.841Z,4.37
2019-05-26T00:49:36.759Z,4.03
2019-05-26T00:52:05.675Z,4.20
2019-05-26T00:54:34.565Z,3.87
2019-05-26T00:57:03.467Z,4.90
2019-05-26T00:59:32.389Z,3.80
2019-05-26T01:02:01.276Z,4.20
2019-05-26T01:04:30.202Z,4.30
2019-05-26T01:06:59.092Z,4.47
2019-05-26T01:09:28.020Z,4.40
2019-05-26T01:11:56.918Z,5.05
2019-05-26T01:14:25.812Z,4.50
2019-05-26T01:16:56.006Z,4.20
2019-05-26T01:19:23.622Z,4.60
2019-05-26T01:21:52.494Z,4.13
2019-05-26T01:24:21.385Z,4.40
2019-05-26T01:26:50.289Z,5.00
2019-05-26T01:29:19.166Z,4.70
2019-05-26T01:31:48.073Z,4.77
2019-05-26T01:34:16.975Z,5.20
2019-05-26T01:36:45.928Z,4.67
2019-05-26T01:39:14.831Z,4.53
2019-05-26T01:41:43.735Z,4.80
2019-05-26T01:44:12.639Z,4.60
2019-05-26T01:46:41.540Z,4.67
2019-05-26T01:49:10.454Z,4.47
2019-05-26T01:51:39.370Z,4.77
2019-05-26T01:54:08.317Z,4.63
2019-05-26T01:56:37.228Z,4.80
2019-05-26T01:59:06.152Z,5.03
2019-05-26T02:01:35.045Z,5.10
2019-05-26T02:04:03.947Z,5.20
2019-05-26T02:06:32.852Z,4.83
2019-05-26T02:09:02.345Z,5.13
2019-05-26T02:11:31.265Z,4.53
2019-05-26T02:14:00.166Z,5.00
2019-05-26T02:16:29.080Z,4.37
2019-05-26T02:18:57.979Z,4.57
2019-05-26T02:21:26.897Z,4.93
2019-05-26T02:23:55.780Z,5.87
2019-05-26T02:26:24.695Z,5.83
2019-05-26T02:28:53.594Z,6.03
2019-05-26T02:31:22.506Z,6.07
2019-05-26T02:33:51.409Z,6.63
2019-05-26T02:36:20.306Z,5.93
2019-05-26T02:39:01.106Z,5.23
2019-05-26T02:41:18.113Z,5.57
2019-05-26T02:43:47.002Z,6.50
2019-05-26T02:46:15.908Z,5.57
2019-05-26T02:48:44.791Z,5.40
2019-05-26T02:51:13.784Z,5.23
2019-05-26T02:53:42.696Z,4.80
2019-05-26T02:56:11.620Z,5.23
2019-05-26T02:58:40.505Z,4.73
2019-05-26T03:01:09.500Z,4.90
2019-05-26T03:03:38.377Z,5.67
2019-05-26T03:06:07.547Z,4.83
2019-05-26T03:08:36.446Z,6.23
2019-05-26T03:11:05.413Z,5.47
2019-05-26T03:13:35.476Z,5.75
2019-05-26T03:16:04.389Z,5.43
2019-05-26T03:18:33.543Z,6.07
2019-05-26T03:21:03.340Z,6.57
2019-05-26T03:23:32.294Z,6.67
2019-05-26T03:26:01.210Z,7.07
2019-05-26T03:28:30.191Z,6.40
2019-05-26T03:30:59.109Z,6.60
2019-05-26T03:33:27.976Z,6.50
2019-05-26T03:35:56.869Z,7.47
2019-05-26T03:38:25.794Z,7.00
2019-05-26T03:40:54.670Z,7.67
2019-05-26T03:43:23.571Z,7.73
2019-05-26T03:46:20.919Z,6.70
2019-05-26T03:48:50.236Z,6.63
2019-05-26T03:51:19.200Z,8.77
2019-05-26T03:53:48.055Z,8.30
2019-05-26T03:56:16.961Z,8.87
2019-05-26T03:58:45.879Z,10.90
2019-05-26T04:01:14.796Z,10.03
2019-05-26T04:03:43.700Z,12.50
2019-05-26T04:06:12.573Z,15.47
2019-05-26T04:08:41.522Z,11.43
2019-05-26T04:11:10.635Z,12.77
2019-05-26T04:13:39.549Z,10.13
2019-05-26T04:16:08.568Z,17.13
2019-05-26T04:18:37.420Z,15.57
2019-05-26T04:21:06.868Z,16.53
2019-05-26T04:23:35.750Z,19.13
2019-05-26T04:26:04.751Z,22.10
2019-05-26T04:28:33.652Z,18.40
2019-05-26T04:31:02.580Z,20.40
2019-05-26T04:33:31.475Z,18.77
2019-05-26T04:36:00.391Z,19.67
2019-05-26T04:38:29.272Z,28.40
2019-05-26T04:40:58.225Z,30.77
2019-05-26T04:43:27.115Z,38.13
2019-05-26T04:45:56.033Z,37.47
2019-05-26T04:48:24.980Z,39.00
2019-05-26T04:50:53.881Z,40.43
2019-05-26T04:53:22.803Z,42.13
2019-05-26T04:55:51.716Z,51.08
2019-05-26T04:58:20.592Z,45.30
2019-05-26T05:00:49.495Z,44.63
2019-05-26T05:03:18.394Z,45.37
2019-05-26T05:05:47.306Z,44.30
2019-05-26T05:08:16.201Z,51.18
2019-05-26T05:10:45.126Z,44.23
2019-05-26T05:13:14.020Z,44.47
2019-05-26T05:15:42.924Z,43.57
2019-05-26T05:18:11.957Z,44.27
2019-05-26T05:20:41.394Z,43.93
2019-05-26T05:23:10.431Z,45.90
2019-05-26T05:25:39.335Z,43.80
2019-05-26T05:28:08.279Z,41.93
2019-05-26T05:30:37.161Z,44.57
2019-05-26T05:33:06.108Z,42.17
2019-05-26T05:35:34.989Z,50.52
2019-05-26T05:38:03.907Z,44.30
2019-05-26T05:40:32.797Z,44.07
2019-05-26T05:43:01.721Z,42.73
2019-05-26T05:45:30.638Z,42.73
2019-05-26T05:47:59.569Z,42.03
2019-05-26T05:50:28.460Z,42.90
2019-05-26T05:52:57.377Z,43.40
2019-05-26T05:55:26.333Z,41.10
2019-05-26T05:57:55.194Z,40.20
2019-05-26T06:00:24.113Z,40.47
2019-05-26T06:02:53.079Z,40.97
2019-05-26T06:05:22.044Z,40.70
2019-05-26T06:07:50.948Z,40.73
2019-05-26T06:10:19.864Z,38.63
2019-05-26T06:12:48.768Z,39.00
2019-05-26T06:15:17.844Z,37.57
2019-05-26T06:17:46.672Z,37.03
2019-05-26T06:20:15.582Z,37.87
2019-05-26T06:22:44.466Z,36.97
2019-05-26T06:25:13.403Z,37.93
2019-05-26T06:27:42.293Z,43.45
2019-05-26T06:30:11.259Z,38.00
2019-05-26T06:32:40.166Z,36.10
2019-05-26T06:35:09.244Z,36.50
2019-05-26T06:37:38.130Z,36.53
2019-05-26T06:40:07.268Z,35.97
2019-05-26T06:42:36.165Z,35.97
2019-05-26T06:45:05.432Z,37.03
2019-05-26T06:47:34.342Z,34.53
2019-05-26T06:50:03.303Z,35.03
2019-05-26T06:52:32.200Z,35.13
2019-05-26T06:55:01.118Z,35.10
2019-05-26T06:57:30.038Z,33.97
2019-05-26T06:59:58.959Z,34.60
2019-05-26T07:02:27.875Z,34.10
2019-05-26T07:04:56.791Z,33.03
2019-05-26T07:07:25.686Z,33.33
2019-05-26T07:09:54.650Z,32.07
2019-05-26T07:12:23.550Z,30.60
2019-05-26T07:14:52.445Z,31.50
2019-05-26T07:17:21.390Z,33.45
2019-05-26T07:19:50.282Z,31.03
2019-05-26T07:22:19.201Z,30.57
2019-05-26T07:24:48.136Z,28.80
2019-05-26T07:27:17.031Z,28.33
2019-05-26T07:29:45.953Z,26.27
2019-05-26T07:32:14.858Z,27.73
2019-05-26T07:34:43.775Z,31.90
2019-05-26T07:37:12.687Z,32.53
2019-05-26T07:39:41.601Z,27.63
2019-05-26T07:42:11.317Z,26.50
2019-05-26T07:44:39.507Z,29.35
2019-05-26T07:47:08.474Z,25.43
2019-05-26T07:49:37.364Z,24.57
2019-05-26T07:52:06.354Z,23.93
2019-05-26T07:54:35.248Z,24.00
2019-05-26T07:57:04.162Z,27.65
2019-05-26T07:59:33.046Z,25.00
2019-05-26T08:02:02.003Z,23.93
2019-05-26T08:04:30.835Z,23.67
2019-05-26T08:06:59.778Z,25.95
2019-05-26T08:09:28.718Z,26.02
2019-05-26T08:11:57.607Z,21.60
2019-05-26T08:14:26.549Z,22.47
2019-05-26T08:16:55.508Z,24.02
2019-05-26T08:19:24.446Z,20.90
2019-05-26T08:21:54.656Z,22.80
2019-05-26T08:24:22.247Z,21.02
2019-05-26T08:26:51.171Z,21.40
2019-05-26T08:29:20.065Z,20.00
2019-05-26T08:31:48.978Z,20.30
2019-05-26T08:34:17.860Z,20.17
2019-05-26T08:36:46.772Z,19.75
2019-05-26T08:39:15.677Z,20.93
2019-05-26T08:41:44.557Z,20.80
2019-05-26T08:44:13.462Z,20.00
2019-05-26T08:46:42.340Z,19.98
2019-05-26T08:49:11.383Z,21.10
2019-05-26T08:51:40.297Z,19.55
2019-05-26T08:54:09.258Z,19.45
2019-05-26T08:56:38.107Z,18.57
2019-05-26T08:59:07.113Z,17.85
2019-05-26T09:01:35.994Z,18.07
2019-05-26T09:04:04.933Z,17.87
2019-05-26T09:06:33.815Z,18.52
2019-05-26T09:09:02.787Z,18.90
2019-05-26T09:11:31.677Z,18.62
2019-05-26T09:14:00.589Z,18.80
2019-05-26T09:16:29.477Z,18.73
2019-05-26T09:18:58.385Z,17.50
2019-05-26T09:21:27.320Z,17.92
2019-05-26T09:23:56.223Z,20.00
2019-05-26T09:26:25.157Z,18.20
2019-05-26T09:28:54.077Z,18.02
2019-05-26T09:31:22.973Z,17.98
2019-05-26T09:33:51.853Z,17.20
2019-05-26T09:36:20.762Z,16.90
2019-05-26T09:38:49.666Z,18.20
2019-05-26T09:41:18.584Z,17.37
2019-05-26T09:43:47.481Z,17.98
2019-05-26T09:46:16.376Z,17.05
2019-05-26T09:48:45.292Z,16.80
2019-05-26T09:51:14.210Z,16.62
2019-05-26T09:53:43.109Z,17.48
2019-05-26T09:56:12.007Z,16.42
2019-05-26T09:58:40.936Z,16.17
2019-05-26T10:01:09.922Z,16.07
2019-05-26T10:03:38.827Z,15.68
2019-05-26T10:06:07.933Z,15.80
2019-05-26T10:08:36.826Z,14.75
2019-05-26T10:11:05.893Z,15.85
2019-05-26T10:13:34.827Z,16.95
2019-05-26T10:16:03.796Z,15.23
2019-05-26T10:18:32.704Z,15.13
2019-05-26T10:21:01.633Z,16.82
2019-05-26T10:23:30.527Z,15.45
2019-05-26T10:25:59.406Z,16.60
2019-05-26T10:28:28.302Z,16.80
2019-05-26T10:30:57.216Z,15.05
2019-05-26T10:33:26.125Z,14.63
2019-05-26T10:35:55.019Z,15.60
2019-05-26T10:38:24.083Z,15.83
2019-05-26T10:40:52.967Z,18.23
2019-05-26T10:43:21.878Z,15.88
2019-05-26T10:45:50.782Z,16.75
2019-05-26T10:48:19.683Z,16.80
2019-05-26T10:50:48.586Z,17.15
2019-05-26T10:53:17.491Z,17.07
2019-05-26T10:55:46.417Z,17.73
2019-05-26T10:58:15.301Z,16.02
2019-05-26T11:00:44.217Z,16.37
2019-05-26T11:03:13.109Z,15.90
2019-05-26T11:05:42.009Z,14.78
2019-05-26T11:08:10.997Z,14.98
2019-05-26T11:10:39.829Z,15.13
2019-05-26T11:13:08.824Z,14.18
2019-05-26T11:15:37.743Z,16.00
2019-05-26T11:18:06.676Z,14.93
2019-05-26T11:20:35.575Z,25.80
2019-05-26T11:23:04.592Z,15.80
2019-05-26T11:25:33.508Z,15.32
2019-05-26T11:28:02.402Z,15.68
2019-05-26T11:30:31.328Z,15.55
2019-05-26T11:33:00.212Z,15.10
2019-05-26T11:35:29.116Z,14.10
2019-05-26T11:37:58.004Z,13.75
2019-05-26T11:40:26.922Z,15.35
2019-05-26T11:42:55.846Z,15.08
2019-05-26T11:45:24.739Z,14.78
2019-05-26T11:47:53.672Z,12.45
2019-05-26T11:50:22.565Z,12.45
2019-05-26T11:52:51.488Z,12.00
2019-05-26T11:55:23.456Z,12.50
2019-05-26T11:57:52.880Z,12.15
2019-05-26T12:00:22.077Z,12.23
2019-05-26T12:02:54.873Z,13.25
2019-05-26T12:05:27.965Z,13.00
2019-05-26T12:07:57.105Z,11.90
2019-05-26T12:10:26.578Z,12.55
2019-05-26T12:12:57.633Z,12.28
2019-05-26T12:15:26.883Z,11.35
2019-05-26T12:17:56.817Z,11.38
2019-05-26T12:20:26.280Z,11.20
2019-05-26T12:22:55.698Z,12.60
2019-05-26T12:25:28.017Z,12.05
2019-05-26T12:28:02.940Z,11.53
2019-05-26T12:30:29.198Z,12.40
2019-05-26T12:33:02.311Z,13.38
2019-05-26T12:35:47.356Z,12.07
2019-05-26T12:38:16.485Z,11.48
2019-05-26T12:40:48.320Z,11.70
2019-05-26T12:43:17.901Z,12.28
2019-05-26T12:45:47.417Z,23.25
2019-05-26T12:48:16.543Z,10.82
2019-05-26T12:50:50.238Z,10.32
2019-05-26T12:53:26.313Z,9.50
2019-05-26T12:55:55.533Z,9.20
2019-05-26T12:58:28.068Z,10.30
2019-05-26T13:00:57.259Z,12.07
2019-05-26T13:03:26.812Z,12.53
2019-05-26T13:05:56.248Z,11.63
2019-05-26T13:08:29.088Z,10.55
2019-05-26T13:10:58.319Z,14.03
2019-05-26T13:13:33.879Z,13.15
2019-05-26T13:16:03.010Z,13.25
2019-05-26T13:18:33.409Z,13.43
2019-05-26T13:21:05.815Z,14.57
2019-05-26T13:23:38.085Z,13.50
2019-05-26T13:26:07.361Z,13.32
2019-05-26T13:28:36.543Z,17.30
2019-05-26T13:31:06.527Z,16.32
2019-05-26T13:33:35.848Z,16.07
2019-05-26T13:36:05.626Z,16.97
2019-05-26T13:38:38.007Z,16.90
2019-05-26T13:41:07.552Z,17.15
2019-05-26T13:43:36.685Z,16.37
2019-05-26T13:46:14.376Z,17.40
2019-05-26T13:48:44.185Z,15.07
2019-05-26T13:51:13.361Z,13.18
2019-05-26T13:53:43.714Z,11.40
2019-05-26T13:56:15.741Z,11.08
2019-05-26T13:58:45.096Z,10.60
2019-05-26T14:01:14.421Z,8.50
2019-05-26T14:03:45.405Z,6.72
2019-05-26T14:06:18.994Z,6.15
2019-05-26T14:08:50.887Z,5.47
2019-05-26T14:11:20.313Z,4.95
2019-05-26T14:13:49.560Z,4.85
2019-05-26T14:16:19.198Z,4.80
2019-05-26T14:18:49.757Z,4.30
2019-05-26T14:21:23.240Z,4.17
2019-05-26T14:23:50.848Z,4.50
2019-05-26T14:26:22.735Z,3.87
2019-05-26T14:28:51.776Z,3.55
2019-05-26T14:31:20.649Z,4.28
2019-05-26T14:33:49.556Z,3.92
2019-05-26T14:36:18.431Z,3.62
2019-05-26T14:38:47.328Z,3.50
2019-05-26T14:41:16.199Z,3.12
2019-05-26T14:43:45.103Z,2.80
2019-05-26T14:46:13.984Z,2.30
2019-05-26T14:48:42.901Z,2.45
2019-05-26T14:51:11.802Z,2.45
2019-05-26T14:53:40.711Z,2.40
2019-05-26T14:56:09.650Z,2.22
2019-05-26T14:58:38.555Z,2.50
2019-05-26T15:01:07.536Z,2.60
2019-05-26T15:03:36.441Z,2.60
2019-05-26T15:06:06.344Z,2.75
2019-05-26T15:08:34.339Z,3.15
2019-05-26T15:11:03.319Z,2.52
2019-05-26T15:13:32.221Z,2.77
2019-05-26T15:16:10.031Z,2.87
2019-05-26T15:18:30.017Z,3.45
2019-05-26T15:20:58.897Z,3.42
2019-05-26T15:23:27.797Z,3.33
2019-05-26T15:25:56.670Z,3.80
2019-05-26T15:28:25.596Z,3.87
2019-05-26T15:30:54.489Z,4.20
2019-05-26T15:33:23.391Z,3.83
2019-05-26T15:35:52.274Z,5.70
2019-05-26T15:38:21.184Z,4.95
2019-05-26T15:40:50.089Z,4.67
2019-05-26T15:43:19.017Z,5.35
2019-05-26T15:45:47.896Z,4.50
2019-05-26T15:48:16.792Z,5.08
2019-05-26T15:50:45.733Z,5.22
2019-05-26T15:53:14.590Z,5.55
2019-05-26T15:55:43.950Z,5.87
2019-05-26T15:58:12.862Z,5.22
2019-05-26T16:00:41.756Z,5.47
2019-05-26T16:03:10.694Z,6.00
2019-05-26T16:05:39.609Z,5.70
2019-05-26T16:08:08.661Z,5.60
2019-05-26T16:10:37.587Z,4.97
2019-05-26T16:13:06.649Z,5.87
2019-05-26T16:15:35.569Z,4.80
2019-05-26T16:18:04.588Z,5.30
2019-05-26T16:20:33.528Z,5.25
2019-05-26T16:23:02.410Z,5.00
2019-05-26T16:25:31.309Z,5.85
2019-05-26T16:28:00.193Z,5.20
2019-05-26T16:30:29.094Z,5.15
2019-05-26T16:32:58.041Z,5.00
2019-05-26T16:35:26.905Z,5.03
2019-05-26T16:37:55.804Z,4.83
2019-05-26T16:40:24.729Z,4.58
2019-05-26T16:42:53.615Z,4.95
2019-05-26T16:45:22.597Z,4.30
2019-05-26T16:47:51.436Z,4.62
2019-05-26T16:50:20.332Z,4.47
2019-05-26T16:52:49.216Z,4.35
2019-05-26T16:55:18.097Z,3.87
2019-05-26T16:57:47.006Z,3.75
2019-05-26T17:00:15.895Z,4.05
2019-05-26T17:02:44.798Z,3.95
2019-05-26T17:05:13.683Z,3.80
2019-05-26T17:07:42.588Z,3.55
2019-05-26T17:10:11.480Z,4.12
2019-05-26T17:12:40.404Z,4.33
2019-05-26T17:15:09.479Z,4.10
2019-05-26T17:17:38.380Z,4.30
2019-05-26T17:20:07.388Z,4.10
2019-05-26T17:22:36.287Z,4.33
2019-05-26T17:25:05.485Z,4.08
2019-05-26T17:27:34.386Z,4.12
2019-05-26T17:30:03.325Z,4.55
2019-05-26T17:32:32.232Z,4.50
2019-05-26T17:35:01.156Z,5.65
2019-05-26T17:37:32.865Z,5.58
2019-05-26T17:40:05.533Z,4.95
2019-05-26T17:42:30.674Z,5.62
2019-05-26T17:44:59.550Z,5.95
2019-05-26T17:47:30.747Z,4.95
2019-05-26T17:49:57.363Z,4.95
2019-05-26T17:52:26.260Z,5.22
2019-05-26T17:54:55.165Z,5.30
2019-05-26T17:57:24.053Z,4.92
2019-05-26T17:59:52.948Z,4.92
2019-05-26T18:02:21.888Z,5.10
2019-05-26T18:04:50.807Z,5.78
2019-05-26T18:07:19.721Z,5.72
2019-05-26T18:09:48.618Z,5.30
2019-05-26T18:12:17.531Z,5.55
2019-05-26T18:14:46.439Z,4.60
2019-05-26T18:17:15.333Z,5.10
2019-05-26T18:19:44.226Z,5.00
2019-05-26T18:22:13.141Z,5.33
2019-05-26T18:24:53.324Z,5.95
2019-05-26T18:27:10.955Z,5.00
2019-05-26T18:29:39.873Z,4.67
2019-05-26T18:32:09.022Z,4.85
2019-05-26T18:34:37.768Z,4.78
2019-05-26T18:37:06.773Z,4.92
2019-05-26T18:39:35.662Z,5.40
2019-05-26T18:42:04.745Z,5.92
2019-05-26T18:44:33.605Z,4.87
2019-05-26T18:47:02.510Z,4.70
2019-05-26T18:49:31.368Z,4.87
2019-05-26T18:52:00.276Z,5.10
2019-05-26T18:54:29.159Z,5.45
2019-05-26T18:56:58.053Z,4.70
2019-05-26T18:59:26.958Z,5.17
2019-05-26T19:01:55.861Z,4.72
2019-05-26T19:04:24.723Z,4.95
2019-05-26T19:06:53.666Z,4.42
2019-05-26T19:09:22.514Z,4.67
2019-05-26T19:11:51.422Z,4.87
2019-05-26T19:14:20.304Z,5.10
2019-05-26T19:16:49.231Z,5.30
2019-05-26T19:19:18.125Z,5.28
2019-05-26T19:21:47.035Z,4.90
2019-05-26T19:24:15.916Z,4.33
2019-05-26T19:26:44.837Z,5.22
2019-05-26T19:29:13.708Z,4.55
2019-05-26T19:31:42.639Z,4.50
2019-05-26T19:34:11.521Z,4.42
2019-05-26T19:36:40.427Z,4.87
2019-05-26T19:39:09.581Z,4.35
2019-05-26T19:41:39.474Z,4.10
2019-05-26T19:44:07.417Z,4.70
2019-05-26T19:46:36.334Z,4.17
2019-05-26T19:49:05.278Z,4.40
2019-05-26T19:51:34.191Z,4.70
2019-05-26T19:54:03.075Z,3.87
2019-05-26T19:56:31.984Z,4.00
2019-05-26T19:59:00.881Z,3.90
2019-05-26T20:01:29.796Z,4.08
2019-05-26T20:03:58.687Z,3.80
2019-05-26T20:06:27.604Z,3.80
2019-05-26T20:08:56.489Z,3.52
2019-05-26T20:11:25.445Z,3.30
2019-05-26T20:13:54.315Z,3.60
2019-05-26T20:16:23.217Z,2.50
2019-05-26T20:18:52.158Z,2.30
2019-05-26T20:21:21.039Z,3.10
2019-05-26T20:23:49.968Z,2.62
2019-05-26T20:26:18.847Z,2.10
2019-05-26T20:28:47.750Z,2.15
2019-05-26T20:31:16.628Z,1.90
2019-05-26T20:33:45.531Z,1.70
2019-05-26T20:36:14.417Z,2.00
2019-05-26T20:38:43.316Z,1.82
2019-05-26T20:41:12.253Z,2.08
2019-05-26T20:43:41.173Z,1.57
2019-05-26T20:46:10.069Z,1.85
2019-05-26T20:48:38.942Z,2.00
2019-05-26T20:51:07.871Z,1.70
2019-05-26T20:53:39.956Z,2.00
2019-05-26T20:56:05.779Z,2.17
2019-05-26T20:58:34.699Z,1.85
2019-05-26T21:01:03.617Z,1.80
2019-05-26T21:03:32.509Z,1.80
2019-05-26T21:06:01.424Z,1.80
2019-05-26T21:08:30.322Z,1.80
2019-05-26T21:10:59.220Z,2.02
2019-05-26T21:13:28.113Z,2.08
2019-05-26T21:15:57.026Z,2.10
2019-05-26T21:18:25.908Z,2.65
2019-05-26T21:20:54.820Z,2.13
2019-05-26T21:23:23.706Z,2.70
2019-05-26T21:25:52.617Z,2.40
2019-05-26T21:28:21.514Z,2.50
2019-05-26T21:30:50.411Z,2.73
2019-05-26T21:33:19.289Z,3.77
2019-05-26T21:35:48.197Z,3.80
2019-05-26T21:38:17.096Z,3.97
2019-05-26T21:40:46.011Z,4.60
2019-05-26T21:43:14.902Z,5.37
2019-05-26T21:45:43.811Z,5.00
2019-05-26T21:48:12.700Z,5.13
2019-05-26T21:50:41.586Z,5.30
2019-05-26T21:53:10.466Z,5.90
2019-05-26T21:55:39.390Z,6.47
2019-05-26T21:58:08.323Z,8.17
2019-05-26T22:00:42.012Z,7.40
2019-05-26T22:03:10.841Z,7.77
2019-05-26T22:05:39.745Z,8.63
2019-05-26T22:08:08.698Z,8.37
2019-05-26T22:10:37.608Z,9.23
2019-05-26T22:13:06.574Z,8.17
2019-05-26T22:15:35.479Z,9.07
2019-05-26T22:18:04.394Z,8.97
2019-05-26T22:20:33.300Z,8.53
2019-05-26T22:23:02.237Z,8.60
2019-05-26T22:25:31.105Z,11.93
2019-05-26T22:28:00.016Z,9.90
2019-05-26T22:30:28.956Z,9.90
2019-05-26T22:32:58.018Z,10.07
2019-05-26T22:35:26.911Z,9.63
2019-05-26T22:37:55.856Z,10.20
2019-05-26T22:40:24.760Z,10.67
2019-05-26T22:42:53.665Z,11.27
2019-05-26T22:45:22.591Z,10.17
2019-05-26T22:47:51.486Z,11.07
2019-05-26T22:50:20.397Z,10.17
2019-05-26T22:52:49.327Z,10.10
2019-05-26T22:55:18.214Z,12.55
2019-05-26T22:57:47.140Z,10.97
2019-05-26T23:00:16.095Z,10.83
2019-05-26T23:02:45.047Z,10.30
2019-05-26T23:05:13.976Z,9.40
2019-05-26T23:07:42.881Z,10.37
2019-05-26T23:10:11.824Z,9.80
2019-05-26T23:12:40.716Z,9.73
2019-05-26T23:15:09.650Z,9.53
2019-05-26T23:17:38.568Z,9.53
2019-05-26T23:20:07.542Z,9.97
2019-05-26T23:22:36.444Z,9.80
2019-05-26T23:25:05.618Z,9.70
2019-05-26T23:27:34.523Z,9.73
2019-05-26T23:30:03.491Z,9.37
2019-05-26T23:32:32.414Z,9.37
2019-05-26T23:35:01.325Z,9.90
2019-05-26T23:37:30.216Z,9.00
2019-05-26T23:39:59.136Z,8.30
2019-05-26T23:42:28.028Z,7.60
2019-05-26T23:44:56.925Z,6.60
2019-05-26T23:47:25.834Z,6.50
2019-05-26T23:49:54.751Z,6.37
2019-05-26T23:52:23.655Z,6.13
2019-05-26T23:54:52.537Z,5.70
2019-05-26T23:57:21.453Z,5.40
2019-05-26T23:59:50.365Z,6.17
